sensor_id;sensor_type;location;lat;lon;timestamp;temperature;humidity
2363;DHT22;64265;51.664;7.626;2023-06-22T00:02:00;26.20;87.90
2363;DHT22;64265;51.664;7.626;2023-06-22T00:04:27;26.10;87.80
2363;DHT22;64265;51.664;7.626;2023-06-22T00:06:54;26.10;87.80
2363;DHT22;64265;51.664;7.626;2023-06-22T00:09:21;26.10;87.80
2363;DHT22;64265;51.664;7.626;2023-06-22T00:11:47;26.10;87.80
2363;DHT22;64265;51.664;7.626;2023-06-22T00:14:15;26.10;87.80
2363;DHT22;64265;51.664;7.626;2023-06-22T00:16:42;26.10;87.80
2363;DHT22;64265;51.664;7.626;2023-06-22T00:19:09;26.10;87.80
2363;DHT22;64265;51.664;7.626;2023-06-22T00:21:37;26.10;87.80
2363;DHT22;64265;51.664;7.626;2023-06-22T00:24:04;26.10;87.80
2363;DHT22;64265;51.664;7.626;2023-06-22T00:26:32;26.10;87.80
2363;DHT22;64265;51.664;7.626;2023-06-22T00:28:59;26.10;87.80
2363;DHT22;64265;51.664;7.626;2023-06-22T00:31:27;26.10;87.80
2363;DHT22;64265;51.664;7.626;2023-06-22T00:33:53;26.10;87.90
2363;DHT22;64265;51.664;7.626;2023-06-22T00:36:20;26.10;87.90
2363;DHT22;64265;51.664;7.626;2023-06-22T00:38:50;26.10;87.90
2363;DHT22;64265;51.664;7.626;2023-06-22T00:41:17;26.10;87.90
2363;DHT22;64265;51.664;7.626;2023-06-22T00:43:43;26.10;87.90
2363;DHT22;64265;51.664;7.626;2023-06-22T00:46:10;26.10;87.90
2363;DHT22;64265;51.664;7.626;2023-06-22T00:48:40;26.10;87.90
2363;DHT22;64265;51.664;7.626;2023-06-22T00:51:09;26.10;87.90
2363;DHT22;64265;51.664;7.626;2023-06-22T00:53:36;26.10;87.90
2363;DHT22;64265;51.664;7.626;2023-06-22T00:56:04;26.10;87.90
2363;DHT22;64265;51.664;7.626;2023-06-22T00:58:32;26.00;87.80
2363;DHT22;64265;51.664;7.626;2023-06-22T01:00:58;26.10;87.90
2363;DHT22;64265;51.664;7.626;2023-06-22T01:03:25;26.10;87.90
2363;DHT22;64265;51.664;7.626;2023-06-22T01:05:59;26.10;87.90
2363;DHT22;64265;51.664;7.626;2023-06-22T01:08:33;26.10;87.90
2363;DHT22;64265;51.664;7.626;2023-06-22T01:11:07;26.00;87.90
2363;DHT22;64265;51.664;7.626;2023-06-22T01:13:37;26.10;87.90
2363;DHT22;64265;51.664;7.626;2023-06-22T01:16:09;26.10;87.90
2363;DHT22;64265;51.664;7.626;2023-06-22T01:18:42;26.00;87.80
2363;DHT22;64265;51.664;7.626;2023-06-22T01:21:14;26.00;87.80
2363;DHT22;64265;51.664;7.626;2023-06-22T01:23:51;26.00;87.90
2363;DHT22;64265;51.664;7.626;2023-06-22T01:26:25;26.00;87.90
2363;DHT22;64265;51.664;7.626;2023-06-22T01:28:57;26.00;87.90
2363;DHT22;64265;51.664;7.626;2023-06-22T01:31:27;26.00;87.90
2363;DHT22;64265;51.664;7.626;2023-06-22T01:33:57;26.00;87.90
2363;DHT22;64265;51.664;7.626;2023-06-22T01:36:25;26.00;87.90
2363;DHT22;64265;51.664;7.626;2023-06-22T01:38:52;26.00;87.90
2363;DHT22;64265;51.664;7.626;2023-06-22T01:41:20;26.00;87.90
2363;DHT22;64265;51.664;7.626;2023-06-22T01:43:48;26.00;87.80
2363;DHT22;64265;51.664;7.626;2023-06-22T01:46:17;26.00;87.80
2363;DHT22;64265;51.664;7.626;2023-06-22T01:48:46;26.00;87.90
2363;DHT22;64265;51.664;7.626;2023-06-22T01:51:13;26.00;87.90
2363;DHT22;64265;51.664;7.626;2023-06-22T01:53:40;26.00;87.90
2363;DHT22;64265;51.664;7.626;2023-06-22T01:56:06;26.00;87.90
2363;DHT22;64265;51.664;7.626;2023-06-22T01:58:36;26.00;87.90
2363;DHT22;64265;51.664;7.626;2023-06-22T02:01:09;26.00;87.90
2363;DHT22;64265;51.664;7.626;2023-06-22T02:03:43;26.00;87.90
2363;DHT22;64265;51.664;7.626;2023-06-22T02:06:16;26.00;87.90
2363;DHT22;64265;51.664;7.626;2023-06-22T02:08:47;26.00;87.90
2363;DHT22;64265;51.664;7.626;2023-06-22T02:11:15;26.00;87.90
2363;DHT22;64265;51.664;7.626;2023-06-22T02:13:44;26.00;87.90
2363;DHT22;64265;51.664;7.626;2023-06-22T02:16:11;26.00;87.90
2363;DHT22;64265;51.664;7.626;2023-06-22T02:18:46;26.00;87.90
2363;DHT22;64265;51.664;7.626;2023-06-22T02:21:12;26.00;87.90
2363;DHT22;64265;51.664;7.626;2023-06-22T02:23:39;26.00;87.90
2363;DHT22;64265;51.664;7.626;2023-06-22T02:26:06;26.00;87.80
2363;DHT22;64265;51.664;7.626;2023-06-22T02:28:32;26.00;87.90
2363;DHT22;64265;51.664;7.626;2023-06-22T02:30:59;26.00;87.90
2363;DHT22;64265;51.664;7.626;2023-06-22T02:33:26;26.00;87.90
2363;DHT22;64265;51.664;7.626;2023-06-22T02:35:54;26.00;87.80
2363;DHT22;64265;51.664;7.626;2023-06-22T02:38:20;26.00;87.90
2363;DHT22;64265;51.664;7.626;2023-06-22T02:40:49;26.00;87.80
2363;DHT22;64265;51.664;7.626;2023-06-22T02:43:16;26.00;88.60
2363;DHT22;64265;51.664;7.626;2023-06-22T02:45:43;26.00;87.80
2363;DHT22;64265;51.664;7.626;2023-06-22T02:48:10;25.90;87.80
2363;DHT22;64265;51.664;7.626;2023-06-22T02:50:37;25.90;87.70
2363;DHT22;64265;51.664;7.626;2023-06-22T02:53:05;25.90;87.70
2363;DHT22;64265;51.664;7.626;2023-06-22T02:55:31;26.00;87.90
2363;DHT22;64265;51.664;7.626;2023-06-22T02:57:58;25.90;87.70
2363;DHT22;64265;51.664;7.626;2023-06-22T03:00:25;25.90;87.80
2363;DHT22;64265;51.664;7.626;2023-06-22T03:02:56;26.00;87.80
2363;DHT22;64265;51.664;7.626;2023-06-22T03:05:22;25.90;87.80
2363;DHT22;64265;51.664;7.626;2023-06-22T03:07:49;25.90;87.70
2363;DHT22;64265;51.664;7.626;2023-06-22T03:10:17;25.90;87.70
2363;DHT22;64265;51.664;7.626;2023-06-22T03:12:44;25.90;87.80
2363;DHT22;64265;51.664;7.626;2023-06-22T03:15:12;25.90;87.70
2363;DHT22;64265;51.664;7.626;2023-06-22T03:17:40;26.00;87.80
2363;DHT22;64265;51.664;7.626;2023-06-22T03:20:08;25.90;87.70
2363;DHT22;64265;51.664;7.626;2023-06-22T03:22:37;25.90;87.70
2363;DHT22;64265;51.664;7.626;2023-06-22T03:25:04;25.90;87.70
2363;DHT22;64265;51.664;7.626;2023-06-22T03:27:36;25.90;87.70
2363;DHT22;64265;51.664;7.626;2023-06-22T03:30:03;25.90;87.70
2363;DHT22;64265;51.664;7.626;2023-06-22T03:32:30;25.90;87.80
2363;DHT22;64265;51.664;7.626;2023-06-22T03:34:57;25.90;87.70
2363;DHT22;64265;51.664;7.626;2023-06-22T03:37:24;25.90;87.70
2363;DHT22;64265;51.664;7.626;2023-06-22T03:39:51;25.90;87.70
2363;DHT22;64265;51.664;7.626;2023-06-22T03:42:18;25.90;87.70
2363;DHT22;64265;51.664;7.626;2023-06-22T03:44:46;25.90;87.70
2363;DHT22;64265;51.664;7.626;2023-06-22T03:47:13;25.90;87.70
2363;DHT22;64265;51.664;7.626;2023-06-22T03:49:40;25.90;87.70
2363;DHT22;64265;51.664;7.626;2023-06-22T03:52:07;25.90;87.70
2363;DHT22;64265;51.664;7.626;2023-06-22T03:54:34;25.90;87.70
2363;DHT22;64265;51.664;7.626;2023-06-22T03:57:00;25.90;87.70
2363;DHT22;64265;51.664;7.626;2023-06-22T03:59:27;25.90;87.70
2363;DHT22;64265;51.664;7.626;2023-06-22T04:01:55;25.90;87.80
2363;DHT22;64265;51.664;7.626;2023-06-22T04:04:22;25.90;87.70
2363;DHT22;64265;51.664;7.626;2023-06-22T04:06:48;25.90;87.70
2363;DHT22;64265;51.664;7.626;2023-06-22T04:09:15;25.90;87.70
2363;DHT22;64265;51.664;7.626;2023-06-22T04:11:42;25.90;87.70
2363;DHT22;64265;51.664;7.626;2023-06-22T04:14:09;25.90;87.70
2363;DHT22;64265;51.664;7.626;2023-06-22T04:16:35;25.90;87.70
2363;DHT22;64265;51.664;7.626;2023-06-22T04:19:03;25.90;87.80
2363;DHT22;64265;51.664;7.626;2023-06-22T04:21:30;25.90;87.70
2363;DHT22;64265;51.664;7.626;2023-06-22T04:23:57;25.90;87.70
2363;DHT22;64265;51.664;7.626;2023-06-22T04:26:23;25.90;87.70
2363;DHT22;64265;51.664;7.626;2023-06-22T04:28:50;25.90;87.70
2363;DHT22;64265;51.664;7.626;2023-06-22T04:31:20;25.90;87.70
2363;DHT22;64265;51.664;7.626;2023-06-22T04:33:47;25.90;87.80
2363;DHT22;64265;51.664;7.626;2023-06-22T04:36:18;25.90;87.80
2363;DHT22;64265;51.664;7.626;2023-06-22T04:38:46;25.90;87.70
2363;DHT22;64265;51.664;7.626;2023-06-22T04:41:13;25.90;87.70
2363;DHT22;64265;51.664;7.626;2023-06-22T04:43:48;25.90;87.70
2363;DHT22;64265;51.664;7.626;2023-06-22T04:46:19;25.90;87.70
2363;DHT22;64265;51.664;7.626;2023-06-22T04:48:46;25.90;87.70
2363;DHT22;64265;51.664;7.626;2023-06-22T04:51:12;25.90;87.70
2363;DHT22;64265;51.664;7.626;2023-06-22T04:53:40;25.90;87.70
2363;DHT22;64265;51.664;7.626;2023-06-22T04:56:08;25.90;87.70
2363;DHT22;64265;51.664;7.626;2023-06-22T04:58:35;25.90;87.70
2363;DHT22;64265;51.664;7.626;2023-06-22T05:01:01;25.90;87.70
2363;DHT22;64265;51.664;7.626;2023-06-22T05:03:29;25.90;87.80
2363;DHT22;64265;51.664;7.626;2023-06-22T05:05:55;25.90;87.70
2363;DHT22;64265;51.664;7.626;2023-06-22T05:08:22;25.90;87.80
2363;DHT22;64265;51.664;7.626;2023-06-22T05:10:53;25.90;87.70
2363;DHT22;64265;51.664;7.626;2023-06-22T05:13:20;25.90;87.70
2363;DHT22;64265;51.664;7.626;2023-06-22T05:15:47;25.90;87.80
2363;DHT22;64265;51.664;7.626;2023-06-22T05:18:13;25.90;87.70
2363;DHT22;64265;51.664;7.626;2023-06-22T05:20:40;25.90;87.70
2363;DHT22;64265;51.664;7.626;2023-06-22T05:23:07;25.90;87.80
2363;DHT22;64265;51.664;7.626;2023-06-22T05:25:34;25.90;87.70
2363;DHT22;64265;51.664;7.626;2023-06-22T05:28:02;25.90;87.70
2363;DHT22;64265;51.664;7.626;2023-06-22T05:30:36;25.90;87.80
2363;DHT22;64265;51.664;7.626;2023-06-22T05:33:03;25.90;87.70
2363;DHT22;64265;51.664;7.626;2023-06-22T05:35:29;25.90;87.80
2363;DHT22;64265;51.664;7.626;2023-06-22T05:37:56;25.80;87.70
2363;DHT22;64265;51.664;7.626;2023-06-22T05:40:23;25.90;87.70
2363;DHT22;64265;51.664;7.626;2023-06-22T05:42:49;25.80;87.60
2363;DHT22;64265;51.664;7.626;2023-06-22T05:45:17;25.80;87.60
2363;DHT22;64265;51.664;7.626;2023-06-22T05:47:44;25.80;87.70
2363;DHT22;64265;51.664;7.626;2023-06-22T05:50:10;25.80;87.60
2363;DHT22;64265;51.664;7.626;2023-06-22T05:52:37;25.80;87.70
2363;DHT22;64265;51.664;7.626;2023-06-22T05:55:05;25.80;87.60
2363;DHT22;64265;51.664;7.626;2023-06-22T05:57:31;25.80;87.70
2363;DHT22;64265;51.664;7.626;2023-06-22T05:59:58;25.80;87.60
2363;DHT22;64265;51.664;7.626;2023-06-22T06:02:26;25.80;87.70
2363;DHT22;64265;51.664;7.626;2023-06-22T06:04:53;25.80;87.70
2363;DHT22;64265;51.664;7.626;2023-06-22T06:07:19;25.80;87.60
2363;DHT22;64265;51.664;7.626;2023-06-22T06:09:46;25.80;87.70
2363;DHT22;64265;51.664;7.626;2023-06-22T06:12:13;25.80;87.70
2363;DHT22;64265;51.664;7.626;2023-06-22T06:14:40;25.80;87.70
2363;DHT22;64265;51.664;7.626;2023-06-22T06:17:06;25.80;87.70
2363;DHT22;64265;51.664;7.626;2023-06-22T06:19:34;25.80;87.60
2363;DHT22;64265;51.664;7.626;2023-06-22T06:22:01;25.80;87.70
2363;DHT22;64265;51.664;7.626;2023-06-22T06:24:28;25.80;87.70
2363;DHT22;64265;51.664;7.626;2023-06-22T06:26:55;25.80;87.70
2363;DHT22;64265;51.664;7.626;2023-06-22T06:29:22;25.80;87.70
2363;DHT22;64265;51.664;7.626;2023-06-22T06:31:51;25.80;87.70
2363;DHT22;64265;51.664;7.626;2023-06-22T06:34:17;25.80;87.70
2363;DHT22;64265;51.664;7.626;2023-06-22T06:36:46;25.80;87.80
2363;DHT22;64265;51.664;7.626;2023-06-22T06:39:12;25.80;87.70
2363;DHT22;64265;51.664;7.626;2023-06-22T06:41:39;25.80;87.70
2363;DHT22;64265;51.664;7.626;2023-06-22T06:44:06;25.80;87.80
2363;DHT22;64265;51.664;7.626;2023-06-22T06:46:32;25.80;87.80
2363;DHT22;64265;51.664;7.626;2023-06-22T06:48:59;25.80;87.70
2363;DHT22;64265;51.664;7.626;2023-06-22T06:51:26;25.80;87.80
2363;DHT22;64265;51.664;7.626;2023-06-22T06:53:54;25.80;87.70
2363;DHT22;64265;51.664;7.626;2023-06-22T06:56:20;25.80;87.90
2363;DHT22;64265;51.664;7.626;2023-06-22T06:58:49;25.70;88.70
2363;DHT22;64265;51.664;7.626;2023-06-22T07:01:16;25.80;89.00
2363;DHT22;64265;51.664;7.626;2023-06-22T07:03:42;25.80;89.30
2363;DHT22;64265;51.664;7.626;2023-06-22T07:06:09;25.80;89.50
2363;DHT22;64265;51.664;7.626;2023-06-22T07:08:36;25.80;90.10
2363;DHT22;64265;51.664;7.626;2023-06-22T07:11:04;25.80;90.40
2363;DHT22;64265;51.664;7.626;2023-06-22T07:13:30;25.70;90.40
2363;DHT22;64265;51.664;7.626;2023-06-22T07:15:57;25.70;90.60
2363;DHT22;64265;51.664;7.626;2023-06-22T07:18:24;25.70;90.40
2363;DHT22;64265;51.664;7.626;2023-06-22T07:20:51;25.80;90.80
2363;DHT22;64265;51.664;7.626;2023-06-22T07:23:18;25.70;91.00
2363;DHT22;64265;51.664;7.626;2023-06-22T07:25:45;25.70;91.60
2363;DHT22;64265;51.664;7.626;2023-06-22T07:28:13;25.70;91.60
2363;DHT22;64265;51.664;7.626;2023-06-22T07:30:40;25.70;91.60
2363;DHT22;64265;51.664;7.626;2023-06-22T07:33:06;25.70;91.50
2363;DHT22;64265;51.664;7.626;2023-06-22T07:35:34;25.70;91.70
2363;DHT22;64265;51.664;7.626;2023-06-22T07:38:00;25.70;91.70
2363;DHT22;64265;51.664;7.626;2023-06-22T07:40:27;25.70;91.50
2363;DHT22;64265;51.664;7.626;2023-06-22T07:42:54;25.80;91.80
2363;DHT22;64265;51.664;7.626;2023-06-22T07:45:22;25.70;91.70
2363;DHT22;64265;51.664;7.626;2023-06-22T07:47:49;25.70;91.70
2363;DHT22;64265;51.664;7.626;2023-06-22T07:50:16;25.70;91.70
2363;DHT22;64265;51.664;7.626;2023-06-22T07:52:42;25.70;91.60
2363;DHT22;64265;51.664;7.626;2023-06-22T07:55:09;25.70;91.80
2363;DHT22;64265;51.664;7.626;2023-06-22T07:57:36;25.70;91.90
2363;DHT22;64265;51.664;7.626;2023-06-22T08:00:05;25.70;91.90
2363;DHT22;64265;51.664;7.626;2023-06-22T08:02:41;25.70;92.10
2363;DHT22;64265;51.664;7.626;2023-06-22T08:05:08;25.80;92.00
2363;DHT22;64265;51.664;7.626;2023-06-22T08:07:36;25.70;92.20
2363;DHT22;64265;51.664;7.626;2023-06-22T08:10:03;25.70;92.60
2363;DHT22;64265;51.664;7.626;2023-06-22T08:12:30;25.70;92.70
2363;DHT22;64265;51.664;7.626;2023-06-22T08:14:57;25.70;92.60
2363;DHT22;64265;51.664;7.626;2023-06-22T08:17:24;25.70;92.70
2363;DHT22;64265;51.664;7.626;2023-06-22T08:19:52;25.70;92.80
2363;DHT22;64265;51.664;7.626;2023-06-22T08:22:19;25.70;93.10
2363;DHT22;64265;51.664;7.626;2023-06-22T08:24:45;25.70;93.20
2363;DHT22;64265;51.664;7.626;2023-06-22T08:27:12;25.70;93.20
2363;DHT22;64265;51.664;7.626;2023-06-22T08:29:40;25.70;93.20
2363;DHT22;64265;51.664;7.626;2023-06-22T08:32:08;25.70;93.20
2363;DHT22;64265;51.664;7.626;2023-06-22T08:34:36;25.70;93.40
2363;DHT22;64265;51.664;7.626;2023-06-22T08:37:04;25.70;93.70
2363;DHT22;64265;51.664;7.626;2023-06-22T08:39:31;25.70;93.70
2363;DHT22;64265;51.664;7.626;2023-06-22T08:41:58;25.70;93.80
2363;DHT22;64265;51.664;7.626;2023-06-22T08:44:25;25.70;93.90
2363;DHT22;64265;51.664;7.626;2023-06-22T08:46:52;25.70;93.90
2363;DHT22;64265;51.664;7.626;2023-06-22T08:49:18;25.70;93.60
2363;DHT22;64265;51.664;7.626;2023-06-22T08:51:45;25.70;93.70
2363;DHT22;64265;51.664;7.626;2023-06-22T08:54:16;25.70;93.80
2363;DHT22;64265;51.664;7.626;2023-06-22T08:56:42;25.70;94.00
2363;DHT22;64265;51.664;7.626;2023-06-22T08:59:10;25.70;94.10
2363;DHT22;64265;51.664;7.626;2023-06-22T09:01:36;25.70;94.40
2363;DHT22;64265;51.664;7.626;2023-06-22T09:04:03;25.70;94.60
2363;DHT22;64265;51.664;7.626;2023-06-22T09:06:31;25.70;94.90
2363;DHT22;64265;51.664;7.626;2023-06-22T09:08:58;25.70;94.90
2363;DHT22;64265;51.664;7.626;2023-06-22T09:11:27;25.70;94.70
2363;DHT22;64265;51.664;7.626;2023-06-22T09:13:54;25.70;94.90
2363;DHT22;64265;51.664;7.626;2023-06-22T09:16:20;25.70;94.70
2363;DHT22;64265;51.664;7.626;2023-06-22T09:18:47;25.70;94.60
2363;DHT22;64265;51.664;7.626;2023-06-22T09:21:14;25.70;94.80
2363;DHT22;64265;51.664;7.626;2023-06-22T09:23:41;25.70;94.40
2363;DHT22;64265;51.664;7.626;2023-06-22T09:26:09;25.70;94.60
2363;DHT22;64265;51.664;7.626;2023-06-22T09:28:37;25.70;94.70
2363;DHT22;64265;51.664;7.626;2023-06-22T09:31:04;25.70;94.60
2363;DHT22;64265;51.664;7.626;2023-06-22T09:33:31;25.70;94.80
2363;DHT22;64265;51.664;7.626;2023-06-22T09:35:58;25.70;94.60
2363;DHT22;64265;51.664;7.626;2023-06-22T09:38:24;25.70;94.80
2363;DHT22;64265;51.664;7.626;2023-06-22T09:40:51;25.80;94.60
2363;DHT22;64265;51.664;7.626;2023-06-22T09:43:18;25.80;94.70
2363;DHT22;64265;51.664;7.626;2023-06-22T09:45:46;25.80;94.80
2363;DHT22;64265;51.664;7.626;2023-06-22T09:48:12;25.80;94.80
2363;DHT22;64265;51.664;7.626;2023-06-22T09:50:39;25.80;94.60
2363;DHT22;64265;51.664;7.626;2023-06-22T09:53:05;25.80;94.70
2363;DHT22;64265;51.664;7.626;2023-06-22T09:55:32;25.80;94.70
2363;DHT22;64265;51.664;7.626;2023-06-22T09:57:59;25.80;94.70
2363;DHT22;64265;51.664;7.626;2023-06-22T10:00:26;25.80;94.70
2363;DHT22;64265;51.664;7.626;2023-06-22T10:02:54;25.80;95.00
2363;DHT22;64265;51.664;7.626;2023-06-22T10:05:21;25.80;94.80
2363;DHT22;64265;51.664;7.626;2023-06-22T10:07:48;25.80;95.00
2363;DHT22;64265;51.664;7.626;2023-06-22T10:10:14;25.90;95.20
2363;DHT22;64265;51.664;7.626;2023-06-22T10:12:43;25.90;95.30
2363;DHT22;64265;51.664;7.626;2023-06-22T10:15:10;25.90;95.20
2363;DHT22;64265;51.664;7.626;2023-06-22T10:17:37;25.90;95.10
2363;DHT22;64265;51.664;7.626;2023-06-22T10:20:07;25.90;94.80
2363;DHT22;64265;51.664;7.626;2023-06-22T10:22:38;25.90;94.70
2363;DHT22;64265;51.664;7.626;2023-06-22T10:25:05;25.90;94.60
2363;DHT22;64265;51.664;7.626;2023-06-22T10:27:32;25.90;94.70
2363;DHT22;64265;51.664;7.626;2023-06-22T10:29:59;25.90;94.70
2363;DHT22;64265;51.664;7.626;2023-06-22T10:32:25;25.90;94.60
2363;DHT22;64265;51.664;7.626;2023-06-22T10:34:53;25.90;94.70
2363;DHT22;64265;51.664;7.626;2023-06-22T10:37:22;25.90;94.70
2363;DHT22;64265;51.664;7.626;2023-06-22T10:39:49;25.90;94.60
2363;DHT22;64265;51.664;7.626;2023-06-22T10:42:15;25.90;94.70
2363;DHT22;64265;51.664;7.626;2023-06-22T10:44:42;25.90;94.60
2363;DHT22;64265;51.664;7.626;2023-06-22T10:47:10;25.90;94.50
2363;DHT22;64265;51.664;7.626;2023-06-22T10:49:37;25.90;94.40
2363;DHT22;64265;51.664;7.626;2023-06-22T10:52:05;25.90;94.50
2363;DHT22;64265;51.664;7.626;2023-06-22T10:54:34;25.90;94.40
2363;DHT22;64265;51.664;7.626;2023-06-22T10:57:01;25.90;94.40
2363;DHT22;64265;51.664;7.626;2023-06-22T10:59:28;25.90;94.50
2363;DHT22;64265;51.664;7.626;2023-06-22T11:01:55;25.90;94.40
2363;DHT22;64265;51.664;7.626;2023-06-22T11:04:23;25.90;94.40
2363;DHT22;64265;51.664;7.626;2023-06-22T11:06:49;25.90;94.30
2363;DHT22;64265;51.664;7.626;2023-06-22T11:09:16;25.90;94.30
2363;DHT22;64265;51.664;7.626;2023-06-22T11:11:47;25.90;94.20
2363;DHT22;64265;51.664;7.626;2023-06-22T11:14:14;25.90;94.30
2363;DHT22;64265;51.664;7.626;2023-06-22T11:16:41;25.90;94.30
2363;DHT22;64265;51.664;7.626;2023-06-22T11:19:08;25.90;94.30
2363;DHT22;64265;51.664;7.626;2023-06-22T11:21:34;25.90;94.40
2363;DHT22;64265;51.664;7.626;2023-06-22T11:24:01;25.90;94.30
2363;DHT22;64265;51.664;7.626;2023-06-22T11:26:28;25.90;94.20
2363;DHT22;64265;51.664;7.626;2023-06-22T11:28:56;25.90;94.10
2363;DHT22;64265;51.664;7.626;2023-06-22T11:31:23;25.90;94.20
2363;DHT22;64265;51.664;7.626;2023-06-22T11:33:50;25.90;94.20
2363;DHT22;64265;51.664;7.626;2023-06-22T11:36:18;25.90;94.30
2363;DHT22;64265;51.664;7.626;2023-06-22T11:38:44;25.90;94.30
2363;DHT22;64265;51.664;7.626;2023-06-22T11:41:11;25.90;94.10
2363;DHT22;64265;51.664;7.626;2023-06-22T11:43:38;25.90;94.10
2363;DHT22;64265;51.664;7.626;2023-06-22T11:46:06;25.90;94.10
2363;DHT22;64265;51.664;7.626;2023-06-22T11:48:33;25.90;94.00
2363;DHT22;64265;51.664;7.626;2023-06-22T11:50:59;25.90;93.90
2363;DHT22;64265;51.664;7.626;2023-06-22T11:53:28;25.90;93.90
2363;DHT22;64265;51.664;7.626;2023-06-22T11:55:55;25.90;94.00
2363;DHT22;64265;51.664;7.626;2023-06-22T11:58:22;25.90;94.00
2363;DHT22;64265;51.664;7.626;2023-06-22T12:00:49;25.90;93.90
2363;DHT22;64265;51.664;7.626;2023-06-22T12:03:19;25.90;93.80
2363;DHT22;64265;51.664;7.626;2023-06-22T12:05:46;25.90;93.70
2363;DHT22;64265;51.664;7.626;2023-06-22T12:08:13;25.90;93.50
2363;DHT22;64265;51.664;7.626;2023-06-22T12:10:40;25.90;93.80
2363;DHT22;64265;51.664;7.626;2023-06-22T12:13:06;25.90;94.30
2363;DHT22;64265;51.664;7.626;2023-06-22T12:15:33;25.90;94.30
2363;DHT22;64265;51.664;7.626;2023-06-22T12:18:00;25.90;94.50
2363;DHT22;64265;51.664;7.626;2023-06-22T12:20:29;25.90;95.20
2363;DHT22;64265;51.664;7.626;2023-06-22T12:22:55;25.90;95.30
2363;DHT22;64265;51.664;7.626;2023-06-22T12:25:23;25.90;95.50
2363;DHT22;64265;51.664;7.626;2023-06-22T12:27:50;25.90;96.00
2363;DHT22;64265;51.664;7.626;2023-06-22T12:30:17;25.90;96.30
2363;DHT22;64265;51.664;7.626;2023-06-22T12:32:43;25.90;96.70
2363;DHT22;64265;51.664;7.626;2023-06-22T12:35:10;25.90;96.90
2363;DHT22;64265;51.664;7.626;2023-06-22T12:37:40;26.00;97.40
2363;DHT22;64265;51.664;7.626;2023-06-22T12:40:08;26.00;97.70
2363;DHT22;64265;51.664;7.626;2023-06-22T12:42:35;26.00;98.00
2363;DHT22;64265;51.664;7.626;2023-06-22T12:45:02;26.00;98.10
2363;DHT22;64265;51.664;7.626;2023-06-22T12:47:29;26.00;98.70
2363;DHT22;64265;51.664;7.626;2023-06-22T12:49:56;26.00;99.00
2363;DHT22;64265;51.664;7.626;2023-06-22T12:52:23;26.00;99.90
2363;DHT22;64265;51.664;7.626;2023-06-22T12:54:51;26.00;99.90
2363;DHT22;64265;51.664;7.626;2023-06-22T12:57:18;26.00;99.90
2363;DHT22;64265;51.664;7.626;2023-06-22T12:59:45;26.00;99.90
2363;DHT22;64265;51.664;7.626;2023-06-22T13:02:12;26.00;99.90
2363;DHT22;64265;51.664;7.626;2023-06-22T13:04:40;26.10;99.90
2363;DHT22;64265;51.664;7.626;2023-06-22T13:07:07;26.10;99.90
2363;DHT22;64265;51.664;7.626;2023-06-22T13:09:33;26.00;99.90
2363;DHT22;64265;51.664;7.626;2023-06-22T13:12:04;26.00;99.90
2363;DHT22;64265;51.664;7.626;2023-06-22T13:14:30;26.00;99.90
2363;DHT22;64265;51.664;7.626;2023-06-22T13:16:57;26.00;99.90
2363;DHT22;64265;51.664;7.626;2023-06-22T13:19:24;26.00;99.90
2363;DHT22;64265;51.664;7.626;2023-06-22T13:21:51;26.00;99.90
2363;DHT22;64265;51.664;7.626;2023-06-22T13:24:18;26.00;99.90
2363;DHT22;64265;51.664;7.626;2023-06-22T13:26:44;26.00;99.90
2363;DHT22;64265;51.664;7.626;2023-06-22T13:29:12;26.00;99.90
2363;DHT22;64265;51.664;7.626;2023-06-22T13:31:39;26.00;99.90
2363;DHT22;64265;51.664;7.626;2023-06-22T13:34:06;26.00;99.90
2363;DHT22;64265;51.664;7.626;2023-06-22T13:36:32;26.00;99.90
2363;DHT22;64265;51.664;7.626;2023-06-22T13:38:59;26.00;99.90
2363;DHT22;64265;51.664;7.626;2023-06-22T13:41:26;26.00;99.90
2363;DHT22;64265;51.664;7.626;2023-06-22T13:43:52;26.00;99.90
2363;DHT22;64265;51.664;7.626;2023-06-22T13:46:20;26.00;99.90
2363;DHT22;64265;51.664;7.626;2023-06-22T13:48:47;26.10;99.90
2363;DHT22;64265;51.664;7.626;2023-06-22T13:51:14;26.00;99.90
2363;DHT22;64265;51.664;7.626;2023-06-22T13:53:40;26.00;99.90
2363;DHT22;64265;51.664;7.626;2023-06-22T13:56:07;26.00;99.90
2363;DHT22;64265;51.664;7.626;2023-06-22T13:58:34;26.00;99.90
2363;DHT22;64265;51.664;7.626;2023-06-22T14:01:00;26.00;99.90
2363;DHT22;64265;51.664;7.626;2023-06-22T14:03:28;26.00;99.90
2363;DHT22;64265;51.664;7.626;2023-06-22T14:05:55;26.00;99.90
2363;DHT22;64265;51.664;7.626;2023-06-22T14:08:23;26.00;99.90
2363;DHT22;64265;51.664;7.626;2023-06-22T14:10:50;26.00;99.90
2363;DHT22;64265;51.664;7.626;2023-06-22T14:13:19;26.00;99.90
2363;DHT22;64265;51.664;7.626;2023-06-22T14:15:45;26.00;99.90
2363;DHT22;64265;51.664;7.626;2023-06-22T14:18:13;26.00;99.90
2363;DHT22;64265;51.664;7.626;2023-06-22T14:20:42;26.00;99.90
2363;DHT22;64265;51.664;7.626;2023-06-22T14:23:09;26.00;99.90
2363;DHT22;64265;51.664;7.626;2023-06-22T14:25:35;26.00;99.90
2363;DHT22;64265;51.664;7.626;2023-06-22T14:28:02;26.00;99.90
2363;DHT22;64265;51.664;7.626;2023-06-22T14:30:29;26.00;99.90
2363;DHT22;64265;51.664;7.626;2023-06-22T14:32:55;26.00;99.90
2363;DHT22;64265;51.664;7.626;2023-06-22T14:35:22;26.00;99.90
2363;DHT22;64265;51.664;7.626;2023-06-22T14:37:51;26.00;99.90
2363;DHT22;64265;51.664;7.626;2023-06-22T14:40:17;26.00;99.90
2363;DHT22;64265;51.664;7.626;2023-06-22T14:42:44;26.00;99.90
2363;DHT22;64265;51.664;7.626;2023-06-22T14:45:12;26.00;99.90
2363;DHT22;64265;51.664;7.626;2023-06-22T14:47:38;26.00;99.90
2363;DHT22;64265;51.664;7.626;2023-06-22T14:50:05;26.00;99.90
2363;DHT22;64265;51.664;7.626;2023-06-22T14:52:32;26.00;99.90
2363;DHT22;64265;51.664;7.626;2023-06-22T14:55:00;26.00;99.90
2363;DHT22;64265;51.664;7.626;2023-06-22T14:57:27;26.00;99.90
2363;DHT22;64265;51.664;7.626;2023-06-22T14:59:54;26.00;99.90
2363;DHT22;64265;51.664;7.626;2023-06-22T15:02:21;26.00;99.90
2363;DHT22;64265;51.664;7.626;2023-06-22T15:04:48;26.00;99.90
2363;DHT22;64265;51.664;7.626;2023-06-22T15:07:15;26.00;99.90
2363;DHT22;64265;51.664;7.626;2023-06-22T15:09:41;26.00;99.90
2363;DHT22;64265;51.664;7.626;2023-06-22T15:12:12;26.00;99.90
2363;DHT22;64265;51.664;7.626;2023-06-22T15:14:39;26.00;99.90
2363;DHT22;64265;51.664;7.626;2023-06-22T15:17:07;26.00;99.90
2363;DHT22;64265;51.664;7.626;2023-06-22T15:19:35;26.00;99.90
2363;DHT22;64265;51.664;7.626;2023-06-22T15:22:03;26.00;99.90
2363;DHT22;64265;51.664;7.626;2023-06-22T15:24:31;26.00;99.90
2363;DHT22;64265;51.664;7.626;2023-06-22T15:26:57;25.90;99.90
2363;DHT22;64265;51.664;7.626;2023-06-22T15:29:26;26.00;99.90
2363;DHT22;64265;51.664;7.626;2023-06-22T15:31:53;26.00;99.90
2363;DHT22;64265;51.664;7.626;2023-06-22T15:34:19;26.00;99.90
2363;DHT22;64265;51.664;7.626;2023-06-22T15:36:46;26.00;99.90
2363;DHT22;64265;51.664;7.626;2023-06-22T15:39:13;25.90;99.90
2363;DHT22;64265;51.664;7.626;2023-06-22T15:41:40;25.90;99.90
2363;DHT22;64265;51.664;7.626;2023-06-22T15:44:07;26.00;99.90
2363;DHT22;64265;51.664;7.626;2023-06-22T15:46:35;26.00;99.90